sensor_id;sensor_type;location;lat;lon;timestamp;temperature;humidity
9403;DHT22;4741;49.834;10.740;2023-03-01T00:01:36;-2.20;99.90
9403;DHT22;4741;49.834;10.740;2023-03-01T00:04:03;-2.50;99.90
9403;DHT22;4741;49.834;10.740;2023-03-01T00:06:30;-2.30;99.90
9403;DHT22;4741;49.834;10.740;2023-03-01T00:08:57;-2.90;99.90
9403;DHT22;4741;49.834;10.740;2023-03-01T00:11:28;-2.30;99.90
9403;DHT22;4741;49.834;10.740;2023-03-01T00:13:57;-2.50;99.90
9403;DHT22;4741;49.834;10.740;2023-03-01T00:16:27;-2.40;99.90
9403;DHT22;4741;49.834;10.740;2023-03-01T00:18:56;-2.60;99.90
9403;DHT22;4741;49.834;10.740;2023-03-01T00:21:24;-2.50;99.90
9403;DHT22;4741;49.834;10.740;2023-03-01T00:23:51;-2.50;99.90
9403;DHT22;4741;49.834;10.740;2023-03-01T00:26:19;-2.50;99.90
9403;DHT22;4741;49.834;10.740;2023-03-01T00:28:48;-2.60;99.90
9403;DHT22;4741;49.834;10.740;2023-03-01T00:31:19;-2.50;99.90
9403;DHT22;4741;49.834;10.740;2023-03-01T00:33:48;-2.50;99.90
9403;DHT22;4741;49.834;10.740;2023-03-01T00:36:15;-2.50;99.90
9403;DHT22;4741;49.834;10.740;2023-03-01T00:38:43;-2.50;99.90
9403;DHT22;4741;49.834;10.740;2023-03-01T00:41:12;-2.50;99.90
9403;DHT22;4741;49.834;10.740;2023-03-01T00:43:42;-2.50;99.90
9403;DHT22;4741;49.834;10.740;2023-03-01T00:46:14;-2.60;99.90
9403;DHT22;4741;49.834;10.740;2023-03-01T00:48:45;-2.50;99.90
9403;DHT22;4741;49.834;10.740;2023-03-01T00:51:22;-2.50;99.90
9403;DHT22;4741;49.834;10.740;2023-03-01T00:53:51;-2.60;99.90
9403;DHT22;4741;49.834;10.740;2023-03-01T00:56:19;-2.80;99.90
9403;DHT22;4741;49.834;10.740;2023-03-01T00:58:46;-2.50;99.90
9403;DHT22;4741;49.834;10.740;2023-03-01T01:01:14;-2.50;99.90
9403;DHT22;4741;49.834;10.740;2023-03-01T01:03:46;-2.50;99.90
9403;DHT22;4741;49.834;10.740;2023-03-01T01:06:20;-2.40;99.90
9403;DHT22;4741;49.834;10.740;2023-03-01T01:08:48;-2.60;99.90
9403;DHT22;4741;49.834;10.740;2023-03-01T01:13:44;-2.60;99.90
9403;DHT22;4741;49.834;10.740;2023-03-01T01:16:13;-2.60;99.90
9403;DHT22;4741;49.834;10.740;2023-03-01T01:18:41;-2.60;99.90
9403;DHT22;4741;49.834;10.740;2023-03-01T01:21:09;-2.60;99.90
9403;DHT22;4741;49.834;10.740;2023-03-01T01:23:38;-2.60;99.90
9403;DHT22;4741;49.834;10.740;2023-03-01T01:26:20;-2.60;99.90
9403;DHT22;4741;49.834;10.740;2023-03-01T01:28:48;-2.50;99.90
9403;DHT22;4741;49.834;10.740;2023-03-01T01:31:16;-2.60;99.90
9403;DHT22;4741;49.834;10.740;2023-03-01T01:33:43;-2.60;99.90
9403;DHT22;4741;49.834;10.740;2023-03-01T01:36:11;-2.60;99.90
9403;DHT22;4741;49.834;10.740;2023-03-01T01:38:38;-2.50;99.90
9403;DHT22;4741;49.834;10.740;2023-03-01T01:41:05;-2.50;99.90
9403;DHT22;4741;49.834;10.740;2023-03-01T01:43:34;-2.60;99.90
9403;DHT22;4741;49.834;10.740;2023-03-01T01:46:28;-2.50;99.90
9403;DHT22;4741;49.834;10.740;2023-03-01T01:49:02;-2.50;99.90
9403;DHT22;4741;49.834;10.740;2023-03-01T01:51:33;-2.50;99.90
9403;DHT22;4741;49.834;10.740;2023-03-01T01:54:13;-2.60;99.90
9403;DHT22;4741;49.834;10.740;2023-03-01T01:56:44;-2.50;99.90
9403;DHT22;4741;49.834;10.740;2023-03-01T01:59:17;-2.60;99.90
9403;DHT22;4741;49.834;10.740;2023-03-01T02:01:43;-2.60;99.90
9403;DHT22;4741;49.834;10.740;2023-03-01T02:04:10;-2.60;99.90
9403;DHT22;4741;49.834;10.740;2023-03-01T02:06:38;-2.60;99.90
9403;DHT22;4741;49.834;10.740;2023-03-01T02:09:11;-2.60;99.90
9403;DHT22;4741;49.834;10.740;2023-03-01T02:11:39;-2.60;99.90
9403;DHT22;4741;49.834;10.740;2023-03-01T02:14:06;-2.60;99.90
9403;DHT22;4741;49.834;10.740;2023-03-01T02:16:33;-2.60;99.90
9403;DHT22;4741;49.834;10.740;2023-03-01T02:19:00;-2.50;99.90
9403;DHT22;4741;49.834;10.740;2023-03-01T02:27:13;-2.70;99.90
9403;DHT22;4741;49.834;10.740;2023-03-01T02:29:42;-2.80;99.90
9403;DHT22;4741;49.834;10.740;2023-03-01T02:32:10;-2.40;99.90
9403;DHT22;4741;49.834;10.740;2023-03-01T02:34:40;-2.70;99.90
9403;DHT22;4741;49.834;10.740;2023-03-01T02:37:09;-2.80;99.90
9403;DHT22;4741;49.834;10.740;2023-03-01T02:39:47;-2.80;99.90
9403;DHT22;4741;49.834;10.740;2023-03-01T02:42:18;-2.70;99.90
9403;DHT22;4741;49.834;10.740;2023-03-01T02:47:20;-2.80;99.90
9403;DHT22;4741;49.834;10.740;2023-03-01T02:49:46;-2.80;99.90
9403;DHT22;4741;49.834;10.740;2023-03-01T02:55:21;-2.80;99.90
9403;DHT22;4741;49.834;10.740;2023-03-01T02:57:48;-2.90;99.90
9403;DHT22;4741;49.834;10.740;2023-03-01T03:00:19;-3.00;99.90
9403;DHT22;4741;49.834;10.740;2023-03-01T03:05:18;-3.00;99.90
9403;DHT22;4741;49.834;10.740;2023-03-01T03:15:21;-2.80;99.90
9403;DHT22;4741;49.834;10.740;2023-03-01T03:17:49;-3.40;99.90
9403;DHT22;4741;49.834;10.740;2023-03-01T03:20:18;-2.60;99.90
9403;DHT22;4741;49.834;10.740;2023-03-01T03:22:47;-1.80;99.90
9403;DHT22;4741;49.834;10.740;2023-03-01T03:25:16;-2.70;99.90
9403;DHT22;4741;49.834;10.740;2023-03-01T03:27:44;-3.00;99.90
9403;DHT22;4741;49.834;10.740;2023-03-01T03:30:15;-3.00;99.90
9403;DHT22;4741;49.834;10.740;2023-03-01T03:32:44;-3.10;99.90
9403;DHT22;4741;49.834;10.740;2023-03-01T03:35:23;-3.00;99.90
9403;DHT22;4741;49.834;10.740;2023-03-01T03:37:58;-3.20;99.90
9403;DHT22;4741;49.834;10.740;2023-03-01T03:40:31;-3.10;99.90
9403;DHT22;4741;49.834;10.740;2023-03-01T03:52:57;-3.30;99.90
9403;DHT22;4741;49.834;10.740;2023-03-01T03:55:23;-3.30;99.90
9403;DHT22;4741;49.834;10.740;2023-03-01T03:57:54;-3.20;99.90
9403;DHT22;4741;49.834;10.740;2023-03-01T04:00:24;-3.60;99.90
9403;DHT22;4741;49.834;10.740;2023-03-01T04:02:50;-3.30;99.90
9403;DHT22;4741;49.834;10.740;2023-03-01T04:05:18;-2.90;99.90
9403;DHT22;4741;49.834;10.740;2023-03-01T04:07:45;-3.30;99.90
9403;DHT22;4741;49.834;10.740;2023-03-01T04:15:10;-3.30;99.90
9403;DHT22;4741;49.834;10.740;2023-03-01T04:17:45;-3.30;99.90
9403;DHT22;4741;49.834;10.740;2023-03-01T04:20:16;-3.30;99.90
9403;DHT22;4741;49.834;10.740;2023-03-01T04:23:13;-3.10;99.90
9403;DHT22;4741;49.834;10.740;2023-03-01T04:30:47;-3.20;99.90
9403;DHT22;4741;49.834;10.740;2023-03-01T04:33:14;-3.10;99.90
9403;DHT22;4741;49.834;10.740;2023-03-01T04:35:40;-3.10;99.90
9403;DHT22;4741;49.834;10.740;2023-03-01T04:38:07;-3.10;99.90
9403;DHT22;4741;49.834;10.740;2023-03-01T04:40:34;-3.00;99.90
9403;DHT22;4741;49.834;10.740;2023-03-01T04:43:02;-2.90;99.90
9403;DHT22;4741;49.834;10.740;2023-03-01T04:45:31;-3.00;99.90
9403;DHT22;4741;49.834;10.740;2023-03-01T04:47:58;-3.30;99.90
9403;DHT22;4741;49.834;10.740;2023-03-01T04:50:25;-3.10;99.90
9403;DHT22;4741;49.834;10.740;2023-03-01T04:52:52;-3.00;99.90
9403;DHT22;4741;49.834;10.740;2023-03-01T04:55:19;-2.80;99.90
9403;DHT22;4741;49.834;10.740;2023-03-01T04:57:46;-3.10;99.90
9403;DHT22;4741;49.834;10.740;2023-03-01T05:00:13;-3.20;99.90
9403;DHT22;4741;49.834;10.740;2023-03-01T05:02:50;-3.10;99.90
9403;DHT22;4741;49.834;10.740;2023-03-01T05:05:30;-3.20;99.90
9403;DHT22;4741;49.834;10.740;2023-03-01T05:08:03;-3.20;99.90
9403;DHT22;4741;49.834;10.740;2023-03-01T05:10:35;-2.80;99.90
9403;DHT22;4741;49.834;10.740;2023-03-01T05:13:02;-3.20;99.90
9403;DHT22;4741;49.834;10.740;2023-03-01T05:15:30;-3.40;99.90
9403;DHT22;4741;49.834;10.740;2023-03-01T05:17:58;-3.40;99.90
9403;DHT22;4741;49.834;10.740;2023-03-01T05:20:26;-3.30;99.90
9403;DHT22;4741;49.834;10.740;2023-03-01T05:22:58;-3.50;99.90
9403;DHT22;4741;49.834;10.740;2023-03-01T05:25:26;-3.50;99.90
9403;DHT22;4741;49.834;10.740;2023-03-01T05:27:53;-3.50;99.90
9403;DHT22;4741;49.834;10.740;2023-03-01T05:30:20;-3.00;99.90
9403;DHT22;4741;49.834;10.740;2023-03-01T06:34:41;-3.30;99.90
9403;DHT22;4741;49.834;10.740;2023-03-01T06:37:07;-2.30;99.90
9403;DHT22;4741;49.834;10.740;2023-03-01T06:39:34;-3.50;99.90
9403;DHT22;4741;49.834;10.740;2023-03-01T06:42:01;-3.00;99.90
9403;DHT22;4741;49.834;10.740;2023-03-01T06:46:55;-2.90;99.90
9403;DHT22;4741;49.834;10.740;2023-03-01T06:49:22;-1.80;99.90
9403;DHT22;4741;49.834;10.740;2023-03-01T06:51:49;-2.70;99.90
9403;DHT22;4741;49.834;10.740;2023-03-01T06:54:18;-2.70;99.90
9403;DHT22;4741;49.834;10.740;2023-03-01T06:56:51;-2.40;99.90
9403;DHT22;4741;49.834;10.740;2023-03-01T06:59:27;-2.40;99.90
9403;DHT22;4741;49.834;10.740;2023-03-01T07:02:03;-1.60;99.90
9403;DHT22;4741;49.834;10.740;2023-03-01T07:04:37;-1.80;99.90
9403;DHT22;4741;49.834;10.740;2023-03-01T07:07:06;-0.40;99.90
9403;DHT22;4741;49.834;10.740;2023-03-01T07:12:05;-2.00;99.90
9403;DHT22;4741;49.834;10.740;2023-03-01T07:14:32;-1.80;99.90
9403;DHT22;4741;49.834;10.740;2023-03-01T07:16:59;-2.00;99.90
9403;DHT22;4741;49.834;10.740;2023-03-01T07:19:28;-2.10;99.90
9403;DHT22;4741;49.834;10.740;2023-03-01T07:29:24;-1.00;99.90
9403;DHT22;4741;49.834;10.740;2023-03-01T07:31:51;-0.70;99.90
9403;DHT22;4741;49.834;10.740;2023-03-01T07:34:22;-1.80;99.90
9403;DHT22;4741;49.834;10.740;2023-03-01T07:36:49;-1.30;99.90
9403;DHT22;4741;49.834;10.740;2023-03-01T07:39:16;0.50;99.90
9403;DHT22;4741;49.834;10.740;2023-03-01T07:41:45;-1.10;99.90
9403;DHT22;4741;49.834;10.740;2023-03-01T07:46:51;0.30;99.90
9403;DHT22;4741;49.834;10.740;2023-03-01T07:52:01;0.20;99.90
9403;DHT22;4741;49.834;10.740;2023-03-01T07:54:31;-0.10;99.90
9403;DHT22;4741;49.834;10.740;2023-03-01T07:56:58;2.10;99.90
9403;DHT22;4741;49.834;10.740;2023-03-01T07:59:24;0.10;99.90
9403;DHT22;4741;49.834;10.740;2023-03-01T08:01:56;-0.70;99.90
9403;DHT22;4741;49.834;10.740;2023-03-01T08:04:23;0.50;99.90
9403;DHT22;4741;49.834;10.740;2023-03-01T08:06:51;2.60;99.90
9403;DHT22;4741;49.834;10.740;2023-03-01T08:11:45;1.10;99.90
9403;DHT22;4741;49.834;10.740;2023-03-01T08:19:08;1.10;99.90
9403;DHT22;4741;49.834;10.740;2023-03-01T08:21:36;1.60;99.90
9403;DHT22;4741;49.834;10.740;2023-03-01T08:24:04;1.20;99.90
9403;DHT22;4741;49.834;10.740;2023-03-01T08:26:32;1.80;99.90
9403;DHT22;4741;49.834;10.740;2023-03-01T08:29:00;1.90;99.90
9403;DHT22;4741;49.834;10.740;2023-03-01T08:34:07;2.10;99.90
9403;DHT22;4741;49.834;10.740;2023-03-01T08:36:37;2.00;99.90
9403;DHT22;4741;49.834;10.740;2023-03-01T08:39:06;2.20;99.90
9403;DHT22;4741;49.834;10.740;2023-03-01T08:51:35;2.30;99.90
9403;DHT22;4741;49.834;10.740;2023-03-01T08:54:06;2.80;99.90
9403;DHT22;4741;49.834;10.740;2023-03-01T08:56:36;2.90;99.90
9403;DHT22;4741;49.834;10.740;2023-03-01T08:59:03;2.80;99.90
9403;DHT22;4741;49.834;10.740;2023-03-01T09:03:58;3.40;99.90
9403;DHT22;4741;49.834;10.740;2023-03-01T09:06:25;3.20;99.90
9403;DHT22;4741;49.834;10.740;2023-03-01T09:08:52;4.20;99.90
9403;DHT22;4741;49.834;10.740;2023-03-01T09:11:20;3.40;99.90
9403;DHT22;4741;49.834;10.740;2023-03-01T09:13:48;3.40;99.90
9403;DHT22;4741;49.834;10.740;2023-03-01T09:16:16;4.00;99.90
9403;DHT22;4741;49.834;10.740;2023-03-01T09:18:48;3.40;99.90
9403;DHT22;4741;49.834;10.740;2023-03-01T09:21:17;2.90;99.90
9403;DHT22;4741;49.834;10.740;2023-03-01T09:23:56;4.50;99.90
9403;DHT22;4741;49.834;10.740;2023-03-01T09:26:24;3.40;99.90
9403;DHT22;4741;49.834;10.740;2023-03-01T09:28:52;3.20;99.90
9403;DHT22;4741;49.834;10.740;2023-03-01T09:31:21;3.70;99.90
9403;DHT22;4741;49.834;10.740;2023-03-01T09:33:50;3.90;99.90
9403;DHT22;4741;49.834;10.740;2023-03-01T09:36:20;3.70;99.90
9403;DHT22;4741;49.834;10.740;2023-03-01T09:47:00;4.70;99.90
9403;DHT22;4741;49.834;10.740;2023-03-01T09:49:28;4.70;99.90
9403;DHT22;4741;49.834;10.740;2023-03-01T09:52:06;5.70;99.90
9403;DHT22;4741;49.834;10.740;2023-03-01T09:55:38;5.30;99.90
9403;DHT22;4741;49.834;10.740;2023-03-01T10:01:26;5.30;99.90
9403;DHT22;4741;49.834;10.740;2023-03-01T10:06:51;5.30;99.90
9403;DHT22;4741;49.834;10.740;2023-03-01T10:09:29;5.20;99.90
9403;DHT22;4741;49.834;10.740;2023-03-01T10:14:39;5.70;99.90
9403;DHT22;4741;49.834;10.740;2023-03-01T10:17:26;5.70;99.90
9403;DHT22;4741;49.834;10.740;2023-03-01T10:20:09;5.90;99.90
9403;DHT22;4741;49.834;10.740;2023-03-01T10:22:47;5.40;99.90
9403;DHT22;4741;49.834;10.740;2023-03-01T10:25:24;6.10;99.90
9403;DHT22;4741;49.834;10.740;2023-03-01T10:28:17;6.30;99.90
9403;DHT22;4741;49.834;10.740;2023-03-01T10:30:51;6.50;99.90
9403;DHT22;4741;49.834;10.740;2023-03-01T10:36:19;7.20;99.90
9403;DHT22;4741;49.834;10.740;2023-03-01T10:38:51;7.70;99.90
9403;DHT22;4741;49.834;10.740;2023-03-01T10:57:10;9.20;99.90
9403;DHT22;4741;49.834;10.740;2023-03-01T11:07:52;10.40;99.90
9403;DHT22;4741;49.834;10.740;2023-03-01T11:10:24;10.50;99.90
9403;DHT22;4741;49.834;10.740;2023-03-01T11:12:53;9.60;99.90
9403;DHT22;4741;49.834;10.740;2023-03-01T11:15:33;10.50;99.90
9403;DHT22;4741;49.834;10.740;2023-03-01T11:18:00;10.20;99.90
9403;DHT22;4741;49.834;10.740;2023-03-01T11:20:39;10.30;99.90
9403;DHT22;4741;49.834;10.740;2023-03-01T11:23:13;9.80;99.90
9403;DHT22;4741;49.834;10.740;2023-03-01T11:25:46;10.80;99.90
9403;DHT22;4741;49.834;10.740;2023-03-01T11:28:17;10.90;99.90
9403;DHT22;4741;49.834;10.740;2023-03-01T11:31:03;11.40;99.90
9403;DHT22;4741;49.834;10.740;2023-03-01T11:49:36;13.00;96.80
9403;DHT22;4741;49.834;10.740;2023-03-01T12:08:06;14.00;94.30
9403;DHT22;4741;49.834;10.740;2023-03-01T12:27:24;15.30;92.70
9403;DHT22;4741;49.834;10.740;2023-03-01T12:30:06;15.60;92.60
9403;DHT22;4741;49.834;10.740;2023-03-01T12:32:43;15.80;91.30
9403;DHT22;4741;49.834;10.740;2023-03-01T12:35:36;16.70;90.20
9403;DHT22;4741;49.834;10.740;2023-03-01T12:38:30;15.80;90.00
9403;DHT22;4741;49.834;10.740;2023-03-01T12:49:16;15.50;89.40
9403;DHT22;4741;49.834;10.740;2023-03-01T12:51:51;16.50;84.20
9403;DHT22;4741;49.834;10.740;2023-03-01T12:54:26;16.80;84.80
9403;DHT22;4741;49.834;10.740;2023-03-01T12:56:57;16.80;84.70
9403;DHT22;4741;49.834;10.740;2023-03-01T12:59:31;16.80;80.60
9403;DHT22;4741;49.834;10.740;2023-03-01T13:02:19;18.50;82.90
9403;DHT22;4741;49.834;10.740;2023-03-01T13:12:46;17.30;78.50
9403;DHT22;4741;49.834;10.740;2023-03-01T13:15:28;17.80;78.70
9403;DHT22;4741;49.834;10.740;2023-03-01T13:23:12;18.50;79.80
9403;DHT22;4741;49.834;10.740;2023-03-01T13:31:05;18.70;76.30
9403;DHT22;4741;49.834;10.740;2023-03-01T13:33:37;18.50;72.50
9403;DHT22;4741;49.834;10.740;2023-03-01T13:36:07;18.50;74.30
9403;DHT22;4741;49.834;10.740;2023-03-01T13:38:45;20.80;85.30
9403;DHT22;4741;49.834;10.740;2023-03-01T13:46:46;19.30;72.70
9403;DHT22;4741;49.834;10.740;2023-03-01T13:49:14;19.10;71.60
9403;DHT22;4741;49.834;10.740;2023-03-01T13:51:48;19.50;68.70
9403;DHT22;4741;49.834;10.740;2023-03-01T13:54:24;19.10;70.70
9403;DHT22;4741;49.834;10.740;2023-03-01T13:56:54;20.20;71.90
9403;DHT22;4741;49.834;10.740;2023-03-01T13:59:22;19.20;70.40
9403;DHT22;4741;49.834;10.740;2023-03-01T14:01:53;20.30;70.60
9403;DHT22;4741;49.834;10.740;2023-03-01T14:04:24;18.10;67.80
9403;DHT22;4741;49.834;10.740;2023-03-01T14:07:16;17.40;67.10
9403;DHT22;4741;49.834;10.740;2023-03-01T14:09:53;18.90;68.20
9403;DHT22;4741;49.834;10.740;2023-03-01T14:15:06;19.80;66.10
9403;DHT22;4741;49.834;10.740;2023-03-01T14:17:44;19.90;66.00
9403;DHT22;4741;49.834;10.740;2023-03-01T14:20:22;17.60;88.20
9403;DHT22;4741;49.834;10.740;2023-03-01T14:22:54;18.30;68.00
9403;DHT22;4741;49.834;10.740;2023-03-01T14:25:29;17.90;68.90
9403;DHT22;4741;49.834;10.740;2023-03-01T14:28:02;18.80;67.90
9403;DHT22;4741;49.834;10.740;2023-03-01T14:30:38;18.10;68.30
9403;DHT22;4741;49.834;10.740;2023-03-01T14:38:31;17.70;67.80
9403;DHT22;4741;49.834;10.740;2023-03-01T14:41:07;19.20;67.10
9403;DHT22;4741;49.834;10.740;2023-03-01T14:43:37;19.90;64.50
9403;DHT22;4741;49.834;10.740;2023-03-01T14:48:43;18.90;65.60
9403;DHT22;4741;49.834;10.740;2023-03-01T14:51:10;18.00;65.90
9403;DHT22;4741;49.834;10.740;2023-03-01T14:53:38;18.80;65.60
9403;DHT22;4741;49.834;10.740;2023-03-01T14:56:16;19.10;65.40
9403;DHT22;4741;49.834;10.740;2023-03-01T14:58:43;19.80;65.20
9403;DHT22;4741;49.834;10.740;2023-03-01T15:01:13;18.80;64.10
9403;DHT22;4741;49.834;10.740;2023-03-01T15:03:42;17.60;76.60
9403;DHT22;4741;49.834;10.740;2023-03-01T15:06:14;17.30;67.20
9403;DHT22;4741;49.834;10.740;2023-03-01T15:08:47;17.70;67.40
9403;DHT22;4741;49.834;10.740;2023-03-01T15:11:18;17.80;66.30
9403;DHT22;4741;49.834;10.740;2023-03-01T15:13:49;18.00;65.60
9403;DHT22;4741;49.834;10.740;2023-03-01T15:16:19;17.40;66.90
9403;DHT22;4741;49.834;10.740;2023-03-01T15:18:52;17.10;76.20
9403;DHT22;4741;49.834;10.740;2023-03-01T15:21:25;17.20;73.80
9403;DHT22;4741;49.834;10.740;2023-03-01T15:24:16;17.00;68.60
9403;DHT22;4741;49.834;10.740;2023-03-01T15:26:53;17.30;70.50
9403;DHT22;4741;49.834;10.740;2023-03-01T15:29:30;17.10;73.40
9403;DHT22;4741;49.834;10.740;2023-03-01T15:32:20;16.70;69.90
9403;DHT22;4741;49.834;10.740;2023-03-01T15:34:51;16.50;92.40
9403;DHT22;4741;49.834;10.740;2023-03-01T15:45:22;15.70;70.90
9403;DHT22;4741;49.834;10.740;2023-03-01T15:47:53;15.60;70.40
9403;DHT22;4741;49.834;10.740;2023-03-01T15:50:29;13.90;72.10
9403;DHT22;4741;49.834;10.740;2023-03-01T15:53:03;14.30;72.60
9403;DHT22;4741;49.834;10.740;2023-03-01T15:55:38;14.30;72.70
9403;DHT22;4741;49.834;10.740;2023-03-01T15:58:12;14.30;73.70
9403;DHT22;4741;49.834;10.740;2023-03-01T16:00:41;13.50;74.40
9403;DHT22;4741;49.834;10.740;2023-03-01T16:03:25;13.20;74.90
9403;DHT22;4741;49.834;10.740;2023-03-01T16:05:52;12.00;77.10
9403;DHT22;4741;49.834;10.740;2023-03-01T16:08:18;10.80;80.80
9403;DHT22;4741;49.834;10.740;2023-03-01T16:10:45;8.90;82.90
9403;DHT22;4741;49.834;10.740;2023-03-01T16:13:14;9.20;87.80
9403;DHT22;4741;49.834;10.740;2023-03-01T16:15:41;8.80;88.60
9403;DHT22;4741;49.834;10.740;2023-03-01T16:18:08;9.90;89.90
9403;DHT22;4741;49.834;10.740;2023-03-01T16:20:36;9.10;89.00
9403;DHT22;4741;49.834;10.740;2023-03-01T16:23:05;9.40;88.50
9403;DHT22;4741;49.834;10.740;2023-03-01T16:25:33;9.00;87.90
9403;DHT22;4741;49.834;10.740;2023-03-01T16:28:01;7.70;88.70
9403;DHT22;4741;49.834;10.740;2023-03-01T16:30:31;8.20;90.80
9403;DHT22;4741;49.834;10.740;2023-03-01T16:32:58;7.90;91.70
9403;DHT22;4741;49.834;10.740;2023-03-01T16:35:25;7.70;92.10
9403;DHT22;4741;49.834;10.740;2023-03-01T16:37:52;7.20;92.90
9403;DHT22;4741;49.834;10.740;2023-03-01T16:40:24;7.10;93.20
9403;DHT22;4741;49.834;10.740;2023-03-01T16:42:53;7.20;93.80
9403;DHT22;4741;49.834;10.740;2023-03-01T16:45:26;7.00;94.30
9403;DHT22;4741;49.834;10.740;2023-03-01T16:47:54;6.80;95.30
9403;DHT22;4741;49.834;10.740;2023-03-01T16:50:22;6.80;95.30
9403;DHT22;4741;49.834;10.740;2023-03-01T16:52:49;6.60;95.70
9403;DHT22;4741;49.834;10.740;2023-03-01T16:55:16;6.40;96.90
9403;DHT22;4741;49.834;10.740;2023-03-01T16:57:42;6.30;96.70
9403;DHT22;4741;49.834;10.740;2023-03-01T17:00:10;5.90;97.30
9403;DHT22;4741;49.834;10.740;2023-03-01T17:02:40;6.20;98.00
9403;DHT22;4741;49.834;10.740;2023-03-01T17:05:08;5.90;98.30
9403;DHT22;4741;49.834;10.740;2023-03-01T17:07:36;6.00;98.90
9403;DHT22;4741;49.834;10.740;2023-03-01T17:10:04;5.90;99.60
9403;DHT22;4741;49.834;10.740;2023-03-01T17:12:34;5.70;99.90
9403;DHT22;4741;49.834;10.740;2023-03-01T17:15:02;6.40;99.90
9403;DHT22;4741;49.834;10.740;2023-03-01T17:17:30;5.70;99.90
9403;DHT22;4741;49.834;10.740;2023-03-01T17:19:57;4.50;99.90
9403;DHT22;4741;49.834;10.740;2023-03-01T17:22:24;5.00;99.90
9403;DHT22;4741;49.834;10.740;2023-03-01T17:24:51;5.00;99.90
9403;DHT22;4741;49.834;10.740;2023-03-01T17:27:18;4.90;99.90
9403;DHT22;4741;49.834;10.740;2023-03-01T17:29:44;4.90;99.90
9403;DHT22;4741;49.834;10.740;2023-03-01T17:32:11;4.70;99.90
9403;DHT22;4741;49.834;10.740;2023-03-01T17:34:38;4.60;99.90
9403;DHT22;4741;49.834;10.740;2023-03-01T17:37:05;4.70;99.90
9403;DHT22;4741;49.834;10.740;2023-03-01T17:39:32;4.20;99.90
9403;DHT22;4741;49.834;10.740;2023-03-01T17:42:04;4.10;99.90
9403;DHT22;4741;49.834;10.740;2023-03-01T17:44:32;5.70;99.90
9403;DHT22;4741;49.834;10.740;2023-03-01T17:47:03;3.70;99.90
9403;DHT22;4741;49.834;10.740;2023-03-01T17:49:33;3.80;99.90
9403;DHT22;4741;49.834;10.740;2023-03-01T17:52:03;4.60;99.90
9403;DHT22;4741;49.834;10.740;2023-03-01T17:54:30;3.20;99.90
9403;DHT22;4741;49.834;10.740;2023-03-01T17:57:00;3.60;99.90
9403;DHT22;4741;49.834;10.740;2023-03-01T17:59:27;3.40;99.90
9403;DHT22;4741;49.834;10.740;2023-03-01T18:01:59;3.80;99.90
9403;DHT22;4741;49.834;10.740;2023-03-01T18:04:27;4.80;99.90
9403;DHT22;4741;49.834;10.740;2023-03-01T18:06:55;5.00;99.90
9403;DHT22;4741;49.834;10.740;2023-03-01T18:11:58;3.40;99.90
9403;DHT22;4741;49.834;10.740;2023-03-01T18:14:25;3.10;99.90
9403;DHT22;4741;49.834;10.740;2023-03-01T18:16:55;4.70;99.90
9403;DHT22;4741;49.834;10.740;2023-03-01T18:19:23;3.60;99.90
9403;DHT22;4741;49.834;10.740;2023-03-01T18:21:51;3.00;99.90
9403;DHT22;4741;49.834;10.740;2023-03-01T18:24:22;2.50;99.90
9403;DHT22;4741;49.834;10.740;2023-03-01T18:26:49;4.00;99.90
9403;DHT22;4741;49.834;10.740;2023-03-01T18:29:15;2.40;99.90
9403;DHT22;4741;49.834;10.740;2023-03-01T18:31:42;2.20;99.90
9403;DHT22;4741;49.834;10.740;2023-03-01T18:34:16;4.10;99.90
9403;DHT22;4741;49.834;10.740;2023-03-01T18:36:43;2.30;99.90
9403;DHT22;4741;49.834;10.740;2023-03-01T18:39:21;2.50;99.90
9403;DHT22;4741;49.834;10.740;2023-03-01T18:41:48;2.90;99.90
9403;DHT22;4741;49.834;10.740;2023-03-01T18:44:16;3.70;99.90
9403;DHT22;4741;49.834;10.740;2023-03-01T18:46:43;2.20;99.90
9403;DHT22;4741;49.834;10.740;2023-03-01T18:49:12;2.80;99.90
9403;DHT22;4741;49.834;10.740;2023-03-01T18:51:41;2.40;99.90
9403;DHT22;4741;49.834;10.740;2023-03-01T18:54:09;2.40;99.90
9403;DHT22;4741;49.834;10.740;2023-03-01T18:56:38;2.70;99.90
9403;DHT22;4741;49.834;10.740;2023-03-01T18:59:05;2.40;99.90
9403;DHT22;4741;49.834;10.740;2023-03-01T19:01:32;3.00;99.90
9403;DHT22;4741;49.834;10.740;2023-03-01T19:04:03;2.30;99.90
9403;DHT22;4741;49.834;10.740;2023-03-01T19:06:31;2.50;99.90
9403;DHT22;4741;49.834;10.740;2023-03-01T19:09:00;2.20;99.90
9403;DHT22;4741;49.834;10.740;2023-03-01T19:11:26;2.20;99.90
9403;DHT22;4741;49.834;10.740;2023-03-01T19:13:56;2.60;99.90
9403;DHT22;4741;49.834;10.740;2023-03-01T19:16:25;1.90;99.90
9403;DHT22;4741;49.834;10.740;2023-03-01T19:18:56;2.00;99.90
9403;DHT22;4741;49.834;10.740;2023-03-01T19:21:25;3.50;99.90
9403;DHT22;4741;49.834;10.740;2023-03-01T19:23:54;2.00;99.90
9403;DHT22;4741;49.834;10.740;2023-03-01T19:26:22;1.90;99.90
9403;DHT22;4741;49.834;10.740;2023-03-01T19:28:51;1.90;99.90
9403;DHT22;4741;49.834;10.740;2023-03-01T19:31:19;1.60;99.90
9403;DHT22;4741;49.834;10.740;2023-03-01T19:33:49;1.50;99.90
9403;DHT22;4741;49.834;10.740;2023-03-01T19:36:20;1.90;99.90
9403;DHT22;4741;49.834;10.740;2023-03-01T19:38:50;1.90;99.90
9403;DHT22;4741;49.834;10.740;2023-03-01T19:41:17;0.70;99.90
9403;DHT22;4741;49.834;10.740;2023-03-01T19:43:44;1.80;99.90
9403;DHT22;4741;49.834;10.740;2023-03-01T19:46:11;1.70;99.90
9403;DHT22;4741;49.834;10.740;2023-03-01T19:48:40;1.60;99.90
9403;DHT22;4741;49.834;10.740;2023-03-01T19:51:09;1.10;99.90
9403;DHT22;4741;49.834;10.740;2023-03-01T19:53:38;1.10;99.90
9403;DHT22;4741;49.834;10.740;2023-03-01T19:56:05;1.00;99.90
9403;DHT22;4741;49.834;10.740;2023-03-01T19:58:33;1.70;99.90
9403;DHT22;4741;49.834;10.740;2023-03-01T20:01:00;0.80;99.90
9403;DHT22;4741;49.834;10.740;2023-03-01T20:03:27;1.70;99.90
9403;DHT22;4741;49.834;10.740;2023-03-01T20:05:59;1.70;99.90
9403;DHT22;4741;49.834;10.740;2023-03-01T20:08:33;1.00;99.90
9403;DHT22;4741;49.834;10.740;2023-03-01T20:11:01;1.40;99.90
9403;DHT22;4741;49.834;10.740;2023-03-01T20:13:28;1.40;99.90
9403;DHT22;4741;49.834;10.740;2023-03-01T20:15:55;1.20;99.90
9403;DHT22;4741;49.834;10.740;2023-03-01T20:18:22;1.50;99.90
9403;DHT22;4741;49.834;10.740;2023-03-01T20:20:49;1.70;99.90
9403;DHT22;4741;49.834;10.740;2023-03-01T20:23:17;1.40;99.90
9403;DHT22;4741;49.834;10.740;2023-03-01T20:25:45;1.30;99.90
9403;DHT22;4741;49.834;10.740;2023-03-01T20:28:14;1.30;99.90
9403;DHT22;4741;49.834;10.740;2023-03-01T20:30:42;1.30;99.90
9403;DHT22;4741;49.834;10.740;2023-03-01T20:33:09;1.20;99.90
9403;DHT22;4741;49.834;10.740;2023-03-01T20:35:40;1.50;99.90
9403;DHT22;4741;49.834;10.740;2023-03-01T20:38:08;1.20;99.90
9403;DHT22;4741;49.834;10.740;2023-03-01T20:40:35;1.40;99.90
9403;DHT22;4741;49.834;10.740;2023-03-01T20:43:03;0.80;99.90
9403;DHT22;4741;49.834;10.740;2023-03-01T20:45:29;0.80;99.90
9403;DHT22;4741;49.834;10.740;2023-03-01T20:47:56;0.90;99.90
9403;DHT22;4741;49.834;10.740;2023-03-01T20:50:25;0.90;99.90
9403;DHT22;4741;49.834;10.740;2023-03-01T20:52:52;0.80;99.90
9403;DHT22;4741;49.834;10.740;2023-03-01T20:55:18;0.70;99.90
9403;DHT22;4741;49.834;10.740;2023-03-01T20:57:45;0.90;99.90
9403;DHT22;4741;49.834;10.740;2023-03-01T21:00:12;1.20;99.90
9403;DHT22;4741;49.834;10.740;2023-03-01T21:02:41;1.10;99.90
9403;DHT22;4741;49.834;10.740;2023-03-01T21:05:08;0.50;99.90